»·PEaware :: N407XA KSBD-KEMT

N407XA :: KSBD-KEMT

FLIGHT INFORMATION

Flight Status: Arrived
Operator: Privately registered:
United States
More flights under this callsign
Pilot: Brent M. (20569)
Aircraft: Unknown
(B407)
More flights by this aircraft type
Origin: KSBD San Bernardino Intl
United States
Destination: KEMT El Monte
United States
More flights between these airports :: More routes between these airports
Route:
File this flight plan on PilotEdge
Remarks:
Altitude:
(Current/Filed)
4,500ft
Speed:
(Current/Filed)
100kts
Departed: 29-Sep-18 04:23 PM
Arrived: 29-Sep-18 04:57 PM
Distance/Time
Traveled:
40nm/0:34
Distance/Time
To Go:
Arrived

Flight Plot

Page will automatically refresh every two minutes.


Map Options




Map Legend


Flown Route
Filed Route
Departure Airport
Arrival Airport
Navaid (VOR, NDB)
Fix

Horizontal Profiles

Position Reports

Time Latitude Longitude Heading Altitude Ground
Speed
29-Sep-18 16:13 34.104829 -117.241482 6 1133ft 0kts
29-Sep-18 16:14 34.104829 -117.241482 6 1133ft 0kts
29-Sep-18 16:15 34.104829 -117.241482 6 1133ft 0kts
29-Sep-18 16:16 34.104829 -117.241483 6 1133ft 0kts
29-Sep-18 16:17 34.104829 -117.241483 6 1133ft 0kts
29-Sep-18 16:18 34.104829 -117.241483 6 1133ft 0kts
29-Sep-18 16:19 34.104829 -117.241483 6 1133ft 0kts
29-Sep-18 16:20 34.104829 -117.241483 6 1133ft 0kts
29-Sep-18 16:21 34.104829 -117.241483 6 1133ft 0kts
29-Sep-18 16:22 34.104829 -117.241483 6 1133ft 0kts
29-Sep-18 16:23 34.104829 -117.241483 6 1133ft 0kts
29-Sep-18 16:24 34.104829 -117.241483 6 1133ft 0kts
29-Sep-18 16:25 34.106571 -117.244360 288 1385ft 52kts
29-Sep-18 16:26 34.119257 -117.247139 9 1898ft 73kts
29-Sep-18 16:27 34.136868 -117.243228 7 2542ft 95kts
29-Sep-18 16:28 34.157267 -117.245804 282 2650ft 76kts
29-Sep-18 16:29 34.146052 -117.252383 176 2136ft 91kts
29-Sep-18 16:30 34.134426 -117.274114 266 1902ft 112kts
29-Sep-18 16:31 34.135707 -117.301018 269 1941ft 125kts
29-Sep-18 16:32 34.138645 -117.343292 271 2311ft 124kts
29-Sep-18 16:33 34.138052 -117.372692 262 2553ft 130kts
29-Sep-18 16:34 34.137294 -117.409836 247 2785ft 124kts
29-Sep-18 16:35 34.120592 -117.437073 234 2486ft 128kts
29-Sep-18 16:36 34.114488 -117.471323 258 2520ft 128kts
29-Sep-18 16:37 34.114922 -117.507047 269 2562ft 125kts
29-Sep-18 16:38 34.110577 -117.536916 257 2589ft 118kts
29-Sep-18 16:39 34.109841 -117.567184 271 2605ft 119kts
29-Sep-18 16:40 34.111691 -117.598247 270 2365ft 124kts
29-Sep-18 16:41 34.115073 -117.630790 272 2485ft 95kts
29-Sep-18 16:42 34.113700 -117.658846 251 2354ft 100kts
29-Sep-18 16:43 34.104029 -117.686002 239 2253ft 93kts
29-Sep-18 16:44 34.101005 -117.712673 266 2166ft 106kts
29-Sep-18 16:45 34.099849 -117.742930 269 1995ft 109kts
29-Sep-18 16:46 34.104005 -117.774463 287 2064ft 112kts
29-Sep-18 16:47 34.112810 -117.805791 281 2050ft 122kts
29-Sep-18 16:48 34.117047 -117.840079 255 2085ft 121kts
29-Sep-18 16:49 34.113203 -117.874879 258 2143ft 122kts
29-Sep-18 16:50 34.100452 -117.902683 211 2040ft 107kts
29-Sep-18 16:51 34.077471 -117.911412 175 1658ft 95kts
29-Sep-18 16:52 34.055633 -117.914411 195 1302ft 103kts
29-Sep-18 16:53 34.045043 -117.936990 260 1550ft 110kts
29-Sep-18 16:54 34.048667 -117.969100 278 1210ft 131kts
29-Sep-18 16:55 34.054463 -118.001107 279 1074ft 133kts
29-Sep-18 16:56 34.063614 -118.029752 331 1044ft 127kts
29-Sep-18 16:57 34.084631 -118.024046 31 790ft 99kts
29-Sep-18 16:58 34.094216 -118.029501 237 511ft 52kts
29-Sep-18 16:59 34.088681 -118.033310 226 299ft 8kts
29-Sep-18 17:00 34.088212 -118.033120 159 294ft 0kts
29-Sep-18 17:01 34.088212 -118.033120 159 294ft 0kts
29-Sep-18 17:02 34.088212 -118.033120 159 294ft 0kts
29-Sep-18 17:03 34.088204 -118.033120 174 294ft 1kts
29-Sep-18 17:04 34.086410 -118.033904 196 306ft 11kts
29-Sep-18 17:05 34.084557 -118.034518 86 300ft 2kts
29-Sep-18 17:06 34.084597 -118.034419 36 301ft 1kts
29-Sep-18 17:07 34.084620 -118.034324 294 298ft 2kts
29-Sep-18 17:08 34.084652 -118.034385 213 294ft 0kts
29-Sep-18 17:09 34.084652 -118.034385 213 294ft 0kts
29-Sep-18 17:10 34.084652 -118.034385 213 294ft 0kts
29-Sep-18 17:11 34.084652 -118.034385 213 294ft 0kts
29-Sep-18 17:12 34.084652 -118.034385 213 294ft 0kts

Navigation Log

Ident Type
1. KSBD Airport
2. KEMT Airport